sensor_id;sensor_type;location;lat;lon;timestamp;P1;durP1;ratioP1;P2;durP2;ratioP2
56043;SDS011;41912;51.022;3.664;2022-07-10T00:02:09;6.25;;;2.40;;
56043;SDS011;41912;51.022;3.664;2022-07-10T00:04:35;6.40;;;2.65;;
56043;SDS011;41912;51.022;3.664;2022-07-10T00:07:01;6.07;;;2.35;;
56043;SDS011;41912;51.022;3.664;2022-07-10T00:09:27;11.18;;;3.63;;
56043;SDS011;41912;51.022;3.664;2022-07-10T00:11:53;4.70;;;2.08;;
56043;SDS011;41912;51.022;3.664;2022-07-10T00:14:19;8.13;;;2.40;;
56043;SDS011;41912;51.022;3.664;2022-07-10T00:16:45;6.30;;;2.00;;
56043;SDS011;41912;51.022;3.664;2022-07-10T00:19:11;7.03;;;2.33;;
56043;SDS011;41912;51.022;3.664;2022-07-10T00:21:36;10.20;;;3.35;;
56043;SDS011;41912;51.022;3.664;2022-07-10T00:24:02;5.90;;;2.42;;
56043;SDS011;41912;51.022;3.664;2022-07-10T00:26:31;8.32;;;2.80;;
56043;SDS011;41912;51.022;3.664;2022-07-10T00:28:57;7.32;;;2.53;;
56043;SDS011;41912;51.022;3.664;2022-07-10T00:31:22;5.50;;;2.53;;
56043;SDS011;41912;51.022;3.664;2022-07-10T00:33:48;12.88;;;3.78;;
56043;SDS011;41912;51.022;3.664;2022-07-10T00:36:14;7.13;;;2.80;;
56043;SDS011;41912;51.022;3.664;2022-07-10T00:38:39;7.82;;;2.58;;
56043;SDS011;41912;51.022;3.664;2022-07-10T00:41:05;7.45;;;2.72;;
56043;SDS011;41912;51.022;3.664;2022-07-10T00:46:16;6.88;;;2.90;;
56043;SDS011;41912;51.022;3.664;2022-07-10T00:48:45;10.82;;;3.10;;
56043;SDS011;41912;51.022;3.664;2022-07-10T00:51:11;8.32;;;3.28;;
56043;SDS011;41912;51.022;3.664;2022-07-10T00:53:37;7.18;;;3.85;;
56043;SDS011;41912;51.022;3.664;2022-07-10T00:56:04;8.23;;;3.08;;
56043;SDS011;41912;51.022;3.664;2022-07-10T00:58:31;7.43;;;2.75;;
56043;SDS011;41912;51.022;3.664;2022-07-10T01:00:58;8.38;;;3.15;;
56043;SDS011;41912;51.022;3.664;2022-07-10T01:03:25;11.88;;;3.38;;
56043;SDS011;41912;51.022;3.664;2022-07-10T01:05:50;9.48;;;3.90;;
56043;SDS011;41912;51.022;3.664;2022-07-10T01:08:16;5.60;;;3.30;;
56043;SDS011;41912;51.022;3.664;2022-07-10T01:10:42;6.72;;;3.80;;
56043;SDS011;41912;51.022;3.664;2022-07-10T01:13:08;8.00;;;3.20;;
56043;SDS011;41912;51.022;3.664;2022-07-10T01:15:34;8.77;;;3.65;;
56043;SDS011;41912;51.022;3.664;2022-07-10T01:18:01;8.73;;;2.90;;
56043;SDS011;41912;51.022;3.664;2022-07-10T01:20:30;7.90;;;3.58;;
56043;SDS011;41912;51.022;3.664;2022-07-10T01:22:57;4.75;;;3.30;;
56043;SDS011;41912;51.022;3.664;2022-07-10T01:25:22;5.75;;;3.45;;
56043;SDS011;41912;51.022;3.664;2022-07-10T01:27:49;6.15;;;2.83;;
56043;SDS011;41912;51.022;3.664;2022-07-10T01:30:15;13.70;;;3.78;;
56043;SDS011;41912;51.022;3.664;2022-07-10T01:32:41;5.93;;;3.80;;
56043;SDS011;41912;51.022;3.664;2022-07-10T01:35:07;10.48;;;4.97;;
56043;SDS011;41912;51.022;3.664;2022-07-10T01:37:33;6.05;;;3.80;;
56043;SDS011;41912;51.022;3.664;2022-07-10T01:39:59;9.10;;;3.88;;
56043;SDS011;41912;51.022;3.664;2022-07-10T01:42:24;7.60;;;4.28;;
56043;SDS011;41912;51.022;3.664;2022-07-10T01:44:50;16.38;;;4.75;;
56043;SDS011;41912;51.022;3.664;2022-07-10T01:47:16;11.70;;;4.68;;
56043;SDS011;41912;51.022;3.664;2022-07-10T01:49:41;7.68;;;4.75;;
56043;SDS011;41912;51.022;3.664;2022-07-10T01:52:07;12.32;;;4.38;;
56043;SDS011;41912;51.022;3.664;2022-07-10T01:54:36;6.57;;;4.32;;
56043;SDS011;41912;51.022;3.664;2022-07-10T01:57:02;7.65;;;4.43;;
56043;SDS011;41912;51.022;3.664;2022-07-10T01:59:28;8.63;;;4.63;;
56043;SDS011;41912;51.022;3.664;2022-07-10T02:01:53;8.25;;;4.85;;
56043;SDS011;41912;51.022;3.664;2022-07-10T02:04:19;12.30;;;4.40;;
56043;SDS011;41912;51.022;3.664;2022-07-10T02:07:03;8.75;;;4.13;;
56043;SDS011;41912;51.022;3.664;2022-07-10T02:09:29;5.05;;;3.72;;
56043;SDS011;41912;51.022;3.664;2022-07-10T02:11:54;7.05;;;4.20;;
56043;SDS011;41912;51.022;3.664;2022-07-10T02:14:20;6.97;;;3.95;;
56043;SDS011;41912;51.022;3.664;2022-07-10T02:16:45;7.63;;;4.32;;
56043;SDS011;41912;51.022;3.664;2022-07-10T02:19:11;8.50;;;4.20;;
56043;SDS011;41912;51.022;3.664;2022-07-10T02:21:36;10.75;;;4.47;;
56043;SDS011;41912;51.022;3.664;2022-07-10T02:24:02;9.18;;;3.78;;
56043;SDS011;41912;51.022;3.664;2022-07-10T02:26:28;6.43;;;4.03;;
56043;SDS011;41912;51.022;3.664;2022-07-10T02:28:53;5.65;;;4.00;;
56043;SDS011;41912;51.022;3.664;2022-07-10T02:31:19;7.45;;;4.10;;
56043;SDS011;41912;51.022;3.664;2022-07-10T02:33:45;7.50;;;3.60;;
56043;SDS011;41912;51.022;3.664;2022-07-10T02:36:10;7.70;;;4.22;;
56043;SDS011;41912;51.022;3.664;2022-07-10T02:38:36;10.43;;;4.20;;
56043;SDS011;41912;51.022;3.664;2022-07-10T02:41:01;4.57;;;3.40;;
56043;SDS011;41912;51.022;3.664;2022-07-10T02:43:27;19.95;;;5.95;;
56043;SDS011;41912;51.022;3.664;2022-07-10T02:45:53;8.27;;;3.83;;
56043;SDS011;41912;51.022;3.664;2022-07-10T02:48:18;5.75;;;3.90;;
56043;SDS011;41912;51.022;3.664;2022-07-10T02:50:44;10.20;;;3.90;;
56043;SDS011;41912;51.022;3.664;2022-07-10T02:53:09;7.20;;;3.83;;
56043;SDS011;41912;51.022;3.664;2022-07-10T02:55:35;6.32;;;4.30;;
56043;SDS011;41912;51.022;3.664;2022-07-10T02:58:01;5.35;;;3.90;;
56043;SDS011;41912;51.022;3.664;2022-07-10T03:00:27;6.75;;;3.63;;
56043;SDS011;41912;51.022;3.664;2022-07-10T03:02:53;8.85;;;4.88;;
56043;SDS011;41912;51.022;3.664;2022-07-10T03:05:20;5.65;;;3.85;;
56043;SDS011;41912;51.022;3.664;2022-07-10T03:07:46;8.15;;;3.85;;
56043;SDS011;41912;51.022;3.664;2022-07-10T03:10:11;7.10;;;4.05;;
56043;SDS011;41912;51.022;3.664;2022-07-10T03:12:37;8.13;;;3.83;;
56043;SDS011;41912;51.022;3.664;2022-07-10T03:15:04;6.75;;;4.10;;
56043;SDS011;41912;51.022;3.664;2022-07-10T03:17:30;11.52;;;4.22;;
56043;SDS011;41912;51.022;3.664;2022-07-10T03:20:08;10.65;;;4.53;;
56043;SDS011;41912;51.022;3.664;2022-07-10T03:22:35;6.45;;;3.90;;
56043;SDS011;41912;51.022;3.664;2022-07-10T03:25:00;5.45;;;4.10;;
56043;SDS011;41912;51.022;3.664;2022-07-10T03:27:26;6.45;;;4.18;;
56043;SDS011;41912;51.022;3.664;2022-07-10T03:29:52;7.55;;;4.07;;
56043;SDS011;41912;51.022;3.664;2022-07-10T03:32:17;9.50;;;4.20;;
56043;SDS011;41912;51.022;3.664;2022-07-10T03:34:43;6.00;;;3.85;;
56043;SDS011;41912;51.022;3.664;2022-07-10T03:37:14;7.00;;;4.88;;
56043;SDS011;41912;51.022;3.664;2022-07-10T03:39:46;6.20;;;3.50;;
56043;SDS011;41912;51.022;3.664;2022-07-10T03:42:15;7.32;;;4.75;;
56043;SDS011;41912;51.022;3.664;2022-07-10T03:44:46;5.80;;;3.40;;
56043;SDS011;41912;51.022;3.664;2022-07-10T03:47:12;10.57;;;3.90;;
56043;SDS011;41912;51.022;3.664;2022-07-10T03:49:38;5.93;;;3.63;;
56043;SDS011;41912;51.022;3.664;2022-07-10T03:52:04;6.93;;;3.33;;
56043;SDS011;41912;51.022;3.664;2022-07-10T03:54:29;6.18;;;3.58;;
56043;SDS011;41912;51.022;3.664;2022-07-10T03:56:56;5.65;;;3.78;;
56043;SDS011;41912;51.022;3.664;2022-07-10T03:59:41;5.70;;;3.70;;
56043;SDS011;41912;51.022;3.664;2022-07-10T04:02:06;9.00;;;3.85;;
56043;SDS011;41912;51.022;3.664;2022-07-10T04:04:32;6.50;;;3.70;;
56043;SDS011;41912;51.022;3.664;2022-07-10T04:06:58;6.55;;;3.70;;
56043;SDS011;41912;51.022;3.664;2022-07-10T04:09:23;7.47;;;3.47;;
56043;SDS011;41912;51.022;3.664;2022-07-10T04:11:49;7.40;;;4.07;;
56043;SDS011;41912;51.022;3.664;2022-07-10T04:14:15;7.03;;;3.92;;
56043;SDS011;41912;51.022;3.664;2022-07-10T04:16:41;5.40;;;3.90;;
56043;SDS011;41912;51.022;3.664;2022-07-10T04:19:06;7.65;;;4.47;;
56043;SDS011;41912;51.022;3.664;2022-07-10T04:21:32;6.68;;;3.92;;
56043;SDS011;41912;51.022;3.664;2022-07-10T04:23:57;4.78;;;3.50;;
56043;SDS011;41912;51.022;3.664;2022-07-10T04:26:23;4.88;;;3.55;;
56043;SDS011;41912;51.022;3.664;2022-07-10T04:28:51;8.50;;;3.58;;
56043;SDS011;41912;51.022;3.664;2022-07-10T04:31:17;6.60;;;3.78;;
56043;SDS011;41912;51.022;3.664;2022-07-10T04:33:43;8.10;;;4.13;;
56043;SDS011;41912;51.022;3.664;2022-07-10T04:36:08;7.88;;;4.07;;
56043;SDS011;41912;51.022;3.664;2022-07-10T04:38:34;6.60;;;4.10;;
56043;SDS011;41912;51.022;3.664;2022-07-10T04:40:59;6.85;;;4.03;;
56043;SDS011;41912;51.022;3.664;2022-07-10T04:43:25;7.15;;;4.43;;
56043;SDS011;41912;51.022;3.664;2022-07-10T04:45:51;6.00;;;3.80;;
56043;SDS011;41912;51.022;3.664;2022-07-10T04:48:17;9.73;;;4.15;;
56043;SDS011;41912;51.022;3.664;2022-07-10T04:50:42;7.60;;;4.85;;
56043;SDS011;41912;51.022;3.664;2022-07-10T04:53:08;9.85;;;4.25;;
56043;SDS011;41912;51.022;3.664;2022-07-10T04:55:36;5.85;;;3.90;;
56043;SDS011;41912;51.022;3.664;2022-07-10T04:58:02;5.15;;;3.90;;
56043;SDS011;41912;51.022;3.664;2022-07-10T05:00:28;7.22;;;4.45;;
56043;SDS011;41912;51.022;3.664;2022-07-10T05:03:00;9.13;;;4.15;;
56043;SDS011;41912;51.022;3.664;2022-07-10T05:05:25;12.70;;;4.65;;
56043;SDS011;41912;51.022;3.664;2022-07-10T05:07:51;6.38;;;4.43;;
56043;SDS011;41912;51.022;3.664;2022-07-10T05:10:19;11.43;;;5.57;;
56043;SDS011;41912;51.022;3.664;2022-07-10T05:12:45;10.68;;;5.45;;
56043;SDS011;41912;51.022;3.664;2022-07-10T05:15:10;9.38;;;5.50;;
56043;SDS011;41912;51.022;3.664;2022-07-10T05:20:02;10.73;;;5.32;;
56043;SDS011;41912;51.022;3.664;2022-07-10T05:22:28;10.68;;;4.65;;
56043;SDS011;41912;51.022;3.664;2022-07-10T05:24:55;11.73;;;4.80;;
56043;SDS011;41912;51.022;3.664;2022-07-10T05:27:36;7.88;;;4.30;;
56043;SDS011;41912;51.022;3.664;2022-07-10T05:30:02;9.43;;;5.07;;
56043;SDS011;41912;51.022;3.664;2022-07-10T05:32:27;6.68;;;4.70;;
56043;SDS011;41912;51.022;3.664;2022-07-10T05:34:53;13.30;;;4.90;;
56043;SDS011;41912;51.022;3.664;2022-07-10T05:37:19;10.07;;;5.30;;
56043;SDS011;41912;51.022;3.664;2022-07-10T05:39:44;10.18;;;4.90;;
56043;SDS011;41912;51.022;3.664;2022-07-10T05:42:10;10.57;;;4.35;;
56043;SDS011;41912;51.022;3.664;2022-07-10T05:44:35;7.55;;;4.32;;
56043;SDS011;41912;51.022;3.664;2022-07-10T05:47:01;6.85;;;4.63;;
56043;SDS011;41912;51.022;3.664;2022-07-10T05:49:27;8.27;;;4.47;;
56043;SDS011;41912;51.022;3.664;2022-07-10T05:51:52;9.77;;;4.30;;
56043;SDS011;41912;51.022;3.664;2022-07-10T05:54:18;10.00;;;4.32;;
56043;SDS011;41912;51.022;3.664;2022-07-10T05:56:43;6.00;;;3.72;;
56043;SDS011;41912;51.022;3.664;2022-07-10T05:59:10;9.55;;;4.13;;
56043;SDS011;41912;51.022;3.664;2022-07-10T06:01:35;8.80;;;4.00;;
56043;SDS011;41912;51.022;3.664;2022-07-10T06:04:01;11.18;;;4.05;;
56043;SDS011;41912;51.022;3.664;2022-07-10T06:06:26;7.70;;;4.88;;
56043;SDS011;41912;51.022;3.664;2022-07-10T06:08:52;8.02;;;3.50;;
56043;SDS011;41912;51.022;3.664;2022-07-10T06:11:18;9.13;;;3.67;;
56043;SDS011;41912;51.022;3.664;2022-07-10T06:13:43;9.65;;;3.10;;
56043;SDS011;41912;51.022;3.664;2022-07-10T06:16:09;8.30;;;3.30;;
56043;SDS011;41912;51.022;3.664;2022-07-10T06:18:34;4.18;;;2.95;;
56043;SDS011;41912;51.022;3.664;2022-07-10T06:21:00;7.25;;;3.20;;
56043;SDS011;41912;51.022;3.664;2022-07-10T06:23:25;13.45;;;3.83;;
56043;SDS011;41912;51.022;3.664;2022-07-10T06:25:51;8.30;;;2.50;;
56043;SDS011;41912;51.022;3.664;2022-07-10T06:28:17;4.65;;;2.58;;
56043;SDS011;41912;51.022;3.664;2022-07-10T06:30:43;5.63;;;2.60;;
56043;SDS011;41912;51.022;3.664;2022-07-10T06:33:09;5.38;;;2.40;;
56043;SDS011;41912;51.022;3.664;2022-07-10T06:35:35;7.75;;;2.67;;
56043;SDS011;41912;51.022;3.664;2022-07-10T06:38:01;3.25;;;1.55;;
56043;SDS011;41912;51.022;3.664;2022-07-10T06:40:28;4.88;;;1.88;;
56043;SDS011;41912;51.022;3.664;2022-07-10T06:42:54;3.85;;;1.45;;
56043;SDS011;41912;51.022;3.664;2022-07-10T06:45:20;4.47;;;1.40;;
56043;SDS011;41912;51.022;3.664;2022-07-10T06:47:46;4.82;;;1.40;;
56043;SDS011;41912;51.022;3.664;2022-07-10T06:50:21;5.20;;;1.50;;
56043;SDS011;41912;51.022;3.664;2022-07-10T06:52:48;3.40;;;1.10;;
56043;SDS011;41912;51.022;3.664;2022-07-10T06:55:14;4.15;;;1.33;;
56043;SDS011;41912;51.022;3.664;2022-07-10T06:57:40;5.38;;;1.52;;
56043;SDS011;41912;51.022;3.664;2022-07-10T07:00:07;6.70;;;1.70;;
56043;SDS011;41912;51.022;3.664;2022-07-10T07:02:34;4.65;;;1.45;;
56043;SDS011;41912;51.022;3.664;2022-07-10T07:05:00;4.90;;;1.38;;
56043;SDS011;41912;51.022;3.664;2022-07-10T07:07:26;7.95;;;1.45;;
56043;SDS011;41912;51.022;3.664;2022-07-10T07:09:51;5.53;;;1.23;;
56043;SDS011;41912;51.022;3.664;2022-07-10T07:12:17;3.58;;;1.30;;
56043;SDS011;41912;51.022;3.664;2022-07-10T07:14:44;4.75;;;1.35;;
56043;SDS011;41912;51.022;3.664;2022-07-10T07:17:09;7.80;;;2.33;;
56043;SDS011;41912;51.022;3.664;2022-07-10T07:19:37;5.45;;;1.42;;
56043;SDS011;41912;51.022;3.664;2022-07-10T07:22:22;5.43;;;1.33;;
56043;SDS011;41912;51.022;3.664;2022-07-10T07:25:07;4.05;;;1.60;;
56043;SDS011;41912;51.022;3.664;2022-07-10T07:27:34;5.35;;;1.23;;
56043;SDS011;41912;51.022;3.664;2022-07-10T07:30:08;2.08;;;1.10;;
56043;SDS011;41912;51.022;3.664;2022-07-10T07:32:36;12.35;;;1.38;;
56043;SDS011;41912;51.022;3.664;2022-07-10T07:35:02;5.90;;;1.55;;
56043;SDS011;41912;51.022;3.664;2022-07-10T07:37:38;7.50;;;1.55;;
56043;SDS011;41912;51.022;3.664;2022-07-10T07:40:05;4.22;;;1.58;;
56043;SDS011;41912;51.022;3.664;2022-07-10T07:42:32;5.63;;;1.50;;
56043;SDS011;41912;51.022;3.664;2022-07-10T07:44:57;8.30;;;1.42;;
56043;SDS011;41912;51.022;3.664;2022-07-10T07:47:23;3.97;;;1.00;;
56043;SDS011;41912;51.022;3.664;2022-07-10T07:49:49;4.20;;;1.30;;
56043;SDS011;41912;51.022;3.664;2022-07-10T07:52:15;3.13;;;1.35;;
56043;SDS011;41912;51.022;3.664;2022-07-10T07:54:40;3.63;;;1.38;;
56043;SDS011;41912;51.022;3.664;2022-07-10T07:57:06;5.05;;;1.20;;
56043;SDS011;41912;51.022;3.664;2022-07-10T07:59:31;6.88;;;1.80;;
56043;SDS011;41912;51.022;3.664;2022-07-10T08:01:57;7.32;;;1.67;;
56043;SDS011;41912;51.022;3.664;2022-07-10T08:04:23;4.18;;;1.58;;
56043;SDS011;41912;51.022;3.664;2022-07-10T08:06:48;7.13;;;1.60;;
56043;SDS011;41912;51.022;3.664;2022-07-10T08:09:18;4.90;;;1.35;;
56043;SDS011;41912;51.022;3.664;2022-07-10T08:11:44;2.58;;;1.20;;
56043;SDS011;41912;51.022;3.664;2022-07-10T08:14:10;4.53;;;1.20;;
56043;SDS011;41912;51.022;3.664;2022-07-10T08:16:35;4.30;;;1.25;;
56043;SDS011;41912;51.022;3.664;2022-07-10T08:19:01;4.07;;;1.67;;
56043;SDS011;41912;51.022;3.664;2022-07-10T08:21:27;4.25;;;1.65;;
56043;SDS011;41912;51.022;3.664;2022-07-10T08:23:53;3.60;;;1.50;;
56043;SDS011;41912;51.022;3.664;2022-07-10T08:26:19;3.20;;;1.42;;
56043;SDS011;41912;51.022;3.664;2022-07-10T08:28:45;4.15;;;1.58;;
56043;SDS011;41912;51.022;3.664;2022-07-10T08:33:36;8.45;;;1.80;;
56043;SDS011;41912;51.022;3.664;2022-07-10T08:36:01;6.72;;;1.70;;
56043;SDS011;41912;51.022;3.664;2022-07-10T08:43:39;5.30;;;1.08;;
56043;SDS011;41912;51.022;3.664;2022-07-10T08:48:31;2.72;;;1.38;;
56043;SDS011;41912;51.022;3.664;2022-07-10T08:50:59;6.07;;;1.50;;
56043;SDS011;41912;51.022;3.664;2022-07-10T08:53:30;10.30;;;2.08;;
56043;SDS011;41912;51.022;3.664;2022-07-10T08:55:57;7.20;;;1.83;;
56043;SDS011;41912;51.022;3.664;2022-07-10T09:00:49;5.55;;;1.40;;
56043;SDS011;41912;51.022;3.664;2022-07-10T09:03:15;4.72;;;1.38;;
56043;SDS011;41912;51.022;3.664;2022-07-10T09:05:40;4.43;;;1.40;;
56043;SDS011;41912;51.022;3.664;2022-07-10T09:08:22;8.50;;;2.50;;
56043;SDS011;41912;51.022;3.664;2022-07-10T09:13:55;5.88;;;1.42;;
56043;SDS011;41912;51.022;3.664;2022-07-10T09:16:25;7.10;;;2.08;;
56043;SDS011;41912;51.022;3.664;2022-07-10T09:18:53;6.47;;;1.17;;
56043;SDS011;41912;51.022;3.664;2022-07-10T09:21:19;3.40;;;1.58;;
56043;SDS011;41912;51.022;3.664;2022-07-10T09:23:45;5.40;;;1.50;;
56043;SDS011;41912;51.022;3.664;2022-07-10T09:26:11;5.00;;;1.40;;
56043;SDS011;41912;51.022;3.664;2022-07-10T09:28:37;9.32;;;1.75;;
56043;SDS011;41912;51.022;3.664;2022-07-10T09:31:02;9.93;;;1.88;;
56043;SDS011;41912;51.022;3.664;2022-07-10T09:33:29;2.75;;;1.13;;
56043;SDS011;41912;51.022;3.664;2022-07-10T09:35:56;5.00;;;1.13;;
56043;SDS011;41912;51.022;3.664;2022-07-10T09:46:08;3.88;;;1.30;;
56043;SDS011;41912;51.022;3.664;2022-07-10T09:48:34;3.72;;;1.25;;
56043;SDS011;41912;51.022;3.664;2022-07-10T09:53:37;3.95;;;0.98;;
56043;SDS011;41912;51.022;3.664;2022-07-10T09:56:12;4.93;;;1.48;;
56043;SDS011;41912;51.022;3.664;2022-07-10T09:58:38;6.13;;;1.58;;
56043;SDS011;41912;51.022;3.664;2022-07-10T10:01:07;7.63;;;1.20;;
56043;SDS011;41912;51.022;3.664;2022-07-10T10:03:34;3.60;;;0.80;;
56043;SDS011;41912;51.022;3.664;2022-07-10T10:06:11;5.95;;;1.30;;
56043;SDS011;41912;51.022;3.664;2022-07-10T10:09:01;4.63;;;1.10;;
56043;SDS011;41912;51.022;3.664;2022-07-10T10:11:43;4.68;;;0.90;;
56043;SDS011;41912;51.022;3.664;2022-07-10T10:14:11;5.38;;;1.00;;
56043;SDS011;41912;51.022;3.664;2022-07-10T10:16:40;5.03;;;1.30;;
56043;SDS011;41912;51.022;3.664;2022-07-10T10:19:18;3.78;;;1.30;;
56043;SDS011;41912;51.022;3.664;2022-07-10T10:21:50;4.45;;;1.20;;
56043;SDS011;41912;51.022;3.664;2022-07-10T10:24:16;5.68;;;1.30;;
56043;SDS011;41912;51.022;3.664;2022-07-10T10:26:43;2.95;;;1.30;;
56043;SDS011;41912;51.022;3.664;2022-07-10T10:29:15;3.15;;;1.23;;
56043;SDS011;41912;51.022;3.664;2022-07-10T10:34:08;3.80;;;1.30;;
56043;SDS011;41912;51.022;3.664;2022-07-10T10:41:39;4.82;;;1.33;;
56043;SDS011;41912;51.022;3.664;2022-07-10T10:46:33;3.38;;;1.20;;
56043;SDS011;41912;51.022;3.664;2022-07-10T10:49:06;2.50;;;1.08;;
56043;SDS011;41912;51.022;3.664;2022-07-10T10:54:21;3.75;;;1.20;;
56043;SDS011;41912;51.022;3.664;2022-07-10T10:57:10;2.10;;;1.00;;
56043;SDS011;41912;51.022;3.664;2022-07-10T10:59:49;5.25;;;1.08;;
56043;SDS011;41912;51.022;3.664;2022-07-10T11:02:35;4.45;;;1.15;;
56043;SDS011;41912;51.022;3.664;2022-07-10T11:07:56;3.40;;;1.05;;
56043;SDS011;41912;51.022;3.664;2022-07-10T11:15:27;4.93;;;1.42;;
56043;SDS011;41912;51.022;3.664;2022-07-10T11:20:24;2.97;;;0.95;;
56043;SDS011;41912;51.022;3.664;2022-07-10T11:23:12;4.10;;;1.27;;
56043;SDS011;41912;51.022;3.664;2022-07-10T11:25:51;3.85;;;1.08;;
56043;SDS011;41912;51.022;3.664;2022-07-10T11:28:36;1.75;;;1.00;;
56043;SDS011;41912;51.022;3.664;2022-07-10T11:31:39;2.50;;;0.80;;
56043;SDS011;41912;51.022;3.664;2022-07-10T11:34:11;4.07;;;1.00;;
56043;SDS011;41912;51.022;3.664;2022-07-10T11:36:38;3.88;;;0.80;;
56043;SDS011;41912;51.022;3.664;2022-07-10T11:39:05;3.53;;;1.08;;
56043;SDS011;41912;51.022;3.664;2022-07-10T11:41:33;2.75;;;0.80;;
56043;SDS011;41912;51.022;3.664;2022-07-10T11:44:15;2.70;;;0.75;;
56043;SDS011;41912;51.022;3.664;2022-07-10T11:46:42;3.22;;;0.80;;
56043;SDS011;41912;51.022;3.664;2022-07-10T11:51:40;2.28;;;0.88;;
56043;SDS011;41912;51.022;3.664;2022-07-10T11:54:07;4.65;;;1.00;;
56043;SDS011;41912;51.022;3.664;2022-07-10T11:56:37;5.13;;;1.00;;
56043;SDS011;41912;51.022;3.664;2022-07-10T11:59:07;2.15;;;0.65;;
56043;SDS011;41912;51.022;3.664;2022-07-10T12:01:34;1.48;;;0.77;;
56043;SDS011;41912;51.022;3.664;2022-07-10T12:04:06;4.50;;;0.90;;
56043;SDS011;41912;51.022;3.664;2022-07-10T12:06:34;3.75;;;0.82;;
56043;SDS011;41912;51.022;3.664;2022-07-10T12:09:05;2.85;;;0.77;;
56043;SDS011;41912;51.022;3.664;2022-07-10T12:11:33;0.63;;;0.52;;
56043;SDS011;41912;51.022;3.664;2022-07-10T12:16:34;3.00;;;0.90;;
56043;SDS011;41912;51.022;3.664;2022-07-10T12:19:00;5.60;;;1.30;;
56043;SDS011;41912;51.022;3.664;2022-07-10T12:21:26;6.13;;;1.00;;
56043;SDS011;41912;51.022;3.664;2022-07-10T12:23:52;6.07;;;1.20;;
56043;SDS011;41912;51.022;3.664;2022-07-10T12:26:18;3.72;;;1.00;;
56043;SDS011;41912;51.022;3.664;2022-07-10T12:28:48;2.42;;;1.10;;
56043;SDS011;41912;51.022;3.664;2022-07-10T12:31:25;4.70;;;1.50;;
56043;SDS011;41912;51.022;3.664;2022-07-10T12:33:53;3.00;;;0.80;;
56043;SDS011;41912;51.022;3.664;2022-07-10T12:36:22;3.53;;;1.08;;
56043;SDS011;41912;51.022;3.664;2022-07-10T12:38:54;4.57;;;1.00;;
56043;SDS011;41912;51.022;3.664;2022-07-10T12:41:22;5.55;;;1.10;;
56043;SDS011;41912;51.022;3.664;2022-07-10T12:43:50;1.10;;;0.80;;
56043;SDS011;41912;51.022;3.664;2022-07-10T12:46:17;4.93;;;0.90;;
56043;SDS011;41912;51.022;3.664;2022-07-10T12:51:46;2.55;;;0.90;;
56043;SDS011;41912;51.022;3.664;2022-07-10T12:56:40;4.43;;;1.13;;
56043;SDS011;41912;51.022;3.664;2022-07-10T12:59:12;4.93;;;1.42;;
56043;SDS011;41912;51.022;3.664;2022-07-10T13:04:10;2.35;;;0.90;;
56043;SDS011;41912;51.022;3.664;2022-07-10T13:06:36;2.30;;;1.00;;
56043;SDS011;41912;51.022;3.664;2022-07-10T13:11:42;4.50;;;0.93;;
56043;SDS011;41912;51.022;3.664;2022-07-10T13:14:08;2.78;;;0.80;;
56043;SDS011;41912;51.022;3.664;2022-07-10T13:16:34;2.72;;;0.80;;
56043;SDS011;41912;51.022;3.664;2022-07-10T13:19:00;1.38;;;0.80;;
56043;SDS011;41912;51.022;3.664;2022-07-10T13:21:25;2.13;;;0.80;;
56043;SDS011;41912;51.022;3.664;2022-07-10T13:23:51;3.22;;;0.90;;
56043;SDS011;41912;51.022;3.664;2022-07-10T13:26:17;5.93;;;0.93;;
56043;SDS011;41912;51.022;3.664;2022-07-10T13:28:42;2.63;;;0.88;;
56043;SDS011;41912;51.022;3.664;2022-07-10T13:31:08;2.78;;;1.02;;
56043;SDS011;41912;51.022;3.664;2022-07-10T13:33:34;4.78;;;0.93;;
56043;SDS011;41912;51.022;3.664;2022-07-10T13:36:00;3.88;;;1.00;;
56043;SDS011;41912;51.022;3.664;2022-07-10T13:38:28;3.75;;;0.85;;
56043;SDS011;41912;51.022;3.664;2022-07-10T13:40:53;3.45;;;0.80;;
56043;SDS011;41912;51.022;3.664;2022-07-10T13:43:19;2.08;;;0.70;;
56043;SDS011;41912;51.022;3.664;2022-07-10T13:45:46;2.85;;;0.80;;
56043;SDS011;41912;51.022;3.664;2022-07-10T13:48:21;2.60;;;0.80;;
56043;SDS011;41912;51.022;3.664;2022-07-10T13:50:47;2.40;;;1.10;;
56043;SDS011;41912;51.022;3.664;2022-07-10T13:53:13;3.22;;;0.98;;
56043;SDS011;41912;51.022;3.664;2022-07-10T13:55:39;5.32;;;1.00;;
56043;SDS011;41912;51.022;3.664;2022-07-10T13:58:05;2.00;;;0.80;;
56043;SDS011;41912;51.022;3.664;2022-07-10T14:00:31;1.98;;;0.68;;
56043;SDS011;41912;51.022;3.664;2022-07-10T14:02:57;2.17;;;0.93;;
56043;SDS011;41912;51.022;3.664;2022-07-10T14:05:22;3.30;;;0.93;;
56043;SDS011;41912;51.022;3.664;2022-07-10T14:07:49;3.13;;;0.85;;
56043;SDS011;41912;51.022;3.664;2022-07-10T14:10:15;4.38;;;0.80;;
56043;SDS011;41912;51.022;3.664;2022-07-10T14:12:41;3.47;;;0.80;;
56043;SDS011;41912;51.022;3.664;2022-07-10T14:17:35;6.47;;;0.70;;
56043;SDS011;41912;51.022;3.664;2022-07-10T14:22:25;3.70;;;1.00;;
56043;SDS011;41912;51.022;3.664;2022-07-10T14:24:51;2.53;;;0.68;;
56043;SDS011;41912;51.022;3.664;2022-07-10T14:27:19;2.45;;;0.77;;
56043;SDS011;41912;51.022;3.664;2022-07-10T14:29:44;3.22;;;0.93;;
56043;SDS011;41912;51.022;3.664;2022-07-10T14:32:10;2.05;;;0.80;;
56043;SDS011;41912;51.022;3.664;2022-07-10T14:34:35;3.03;;;0.90;;
56043;SDS011;41912;51.022;3.664;2022-07-10T14:37:01;2.25;;;1.02;;
56043;SDS011;41912;51.022;3.664;2022-07-10T14:39:27;2.30;;;0.70;;
56043;SDS011;41912;51.022;3.664;2022-07-10T14:41:53;2.88;;;1.20;;
56043;SDS011;41912;51.022;3.664;2022-07-10T14:44:19;1.40;;;0.77;;
56043;SDS011;41912;51.022;3.664;2022-07-10T14:46:44;2.60;;;0.65;;
56043;SDS011;41912;51.022;3.664;2022-07-10T14:49:10;2.25;;;0.75;;
56043;SDS011;41912;51.022;3.664;2022-07-10T14:51:36;2.42;;;0.80;;
56043;SDS011;41912;51.022;3.664;2022-07-10T14:54:02;2.58;;;0.75;;
56043;SDS011;41912;51.022;3.664;2022-07-10T14:56:28;2.45;;;0.70;;
56043;SDS011;41912;51.022;3.664;2022-07-10T14:58:54;1.23;;;0.55;;
56043;SDS011;41912;51.022;3.664;2022-07-10T15:01:19;2.22;;;0.70;;
56043;SDS011;41912;51.022;3.664;2022-07-10T15:03:45;1.98;;;0.70;;
56043;SDS011;41912;51.022;3.664;2022-07-10T15:06:11;2.38;;;0.70;;
56043;SDS011;41912;51.022;3.664;2022-07-10T15:08:36;3.35;;;0.95;;
56043;SDS011;41912;51.022;3.664;2022-07-10T15:11:02;5.63;;;0.80;;
56043;SDS011;41912;51.022;3.664;2022-07-10T15:13:30;3.05;;;0.90;;
56043;SDS011;41912;51.022;3.664;2022-07-10T15:15:55;2.03;;;0.73;;
56043;SDS011;41912;51.022;3.664;2022-07-10T15:18:21;3.30;;;0.70;;
56043;SDS011;41912;51.022;3.664;2022-07-10T15:20:47;2.10;;;0.60;;
56043;SDS011;41912;51.022;3.664;2022-07-10T15:23:14;1.17;;;0.40;;
56043;SDS011;41912;51.022;3.664;2022-07-10T15:25:40;3.35;;;0.80;;
56043;SDS011;41912;51.022;3.664;2022-07-10T15:28:21;2.67;;;0.70;;
56043;SDS011;41912;51.022;3.664;2022-07-10T15:30:46;1.92;;;0.50;;
56043;SDS011;41912;51.022;3.664;2022-07-10T15:33:12;1.85;;;0.77;;
56043;SDS011;41912;51.022;3.664;2022-07-10T15:35:37;4.45;;;0.70;;
56043;SDS011;41912;51.022;3.664;2022-07-10T15:38:03;1.83;;;0.73;;
56043;SDS011;41912;51.022;3.664;2022-07-10T15:40:29;1.88;;;0.70;;
56043;SDS011;41912;51.022;3.664;2022-07-10T15:42:58;2.35;;;0.85;;
56043;SDS011;41912;51.022;3.664;2022-07-10T15:45:24;2.00;;;0.70;;
56043;SDS011;41912;51.022;3.664;2022-07-10T15:47:51;2.03;;;0.85;;
56043;SDS011;41912;51.022;3.664;2022-07-10T15:50:16;1.83;;;0.45;;
56043;SDS011;41912;51.022;3.664;2022-07-10T15:52:42;2.72;;;0.63;;
56043;SDS011;41912;51.022;3.664;2022-07-10T15:55:10;1.10;;;0.52;;
56043;SDS011;41912;51.022;3.664;2022-07-10T15:57:36;1.85;;;0.57;;
56043;SDS011;41912;51.022;3.664;2022-07-10T16:00:02;4.05;;;0.70;;
56043;SDS011;41912;51.022;3.664;2022-07-10T16:02:29;4.65;;;0.60;;